sensor_id;sensor_type;location;lat;lon;timestamp;P1;durP1;ratioP1;P2;durP2;ratioP2
53644;SDS011;39547;45.554;12.068;2024-02-26T00:05:26;24.67;;;15.52;;
53644;SDS011;39547;45.554;12.068;2024-02-26T00:11:28;25.48;;;15.18;;
53644;SDS011;39547;45.554;12.068;2024-02-26T00:17:29;23.95;;;15.23;;
53644;SDS011;39547;45.554;12.068;2024-02-26T00:23:31;25.38;;;16.17;;
53644;SDS011;39547;45.554;12.068;2024-02-26T00:29:33;24.55;;;15.88;;
53644;SDS011;39547;45.554;12.068;2024-02-26T00:35:34;26.58;;;15.80;;
53644;SDS011;39547;45.554;12.068;2024-02-26T00:41:41;25.60;;;16.70;;
53644;SDS011;39547;45.554;12.068;2024-02-26T00:47:43;25.02;;;15.73;;
53644;SDS011;39547;45.554;12.068;2024-02-26T00:53:46;24.30;;;16.10;;
53644;SDS011;39547;45.554;12.068;2024-02-26T00:59:47;26.83;;;16.77;;
53644;SDS011;39547;45.554;12.068;2024-02-26T01:05:49;26.40;;;17.42;;
53644;SDS011;39547;45.554;12.068;2024-02-26T01:11:50;28.10;;;17.98;;
53644;SDS011;39547;45.554;12.068;2024-02-26T01:17:52;28.83;;;18.80;;
53644;SDS011;39547;45.554;12.068;2024-02-26T01:23:53;26.88;;;17.67;;
53644;SDS011;39547;45.554;12.068;2024-02-26T01:29:55;26.42;;;17.42;;
53644;SDS011;39547;45.554;12.068;2024-02-26T01:35:56;25.30;;;16.80;;
53644;SDS011;39547;45.554;12.068;2024-02-26T01:41:58;25.52;;;16.38;;
53644;SDS011;39547;45.554;12.068;2024-02-26T01:48:00;25.65;;;16.70;;
53644;SDS011;39547;45.554;12.068;2024-02-26T01:54:02;26.63;;;17.25;;
53644;SDS011;39547;45.554;12.068;2024-02-26T02:00:05;25.83;;;16.67;;
53644;SDS011;39547;45.554;12.068;2024-02-26T02:06:09;27.45;;;18.23;;
53644;SDS011;39547;45.554;12.068;2024-02-26T02:12:12;28.23;;;18.05;;
53644;SDS011;39547;45.554;12.068;2024-02-26T02:18:13;30.75;;;19.23;;
53644;SDS011;39547;45.554;12.068;2024-02-26T02:24:15;30.42;;;19.73;;
53644;SDS011;39547;45.554;12.068;2024-02-26T02:30:16;29.50;;;18.77;;
53644;SDS011;39547;45.554;12.068;2024-02-26T02:36:19;30.85;;;20.33;;
53644;SDS011;39547;45.554;12.068;2024-02-26T02:42:20;31.10;;;20.83;;
53644;SDS011;39547;45.554;12.068;2024-02-26T02:48:22;31.30;;;20.25;;
53644;SDS011;39547;45.554;12.068;2024-02-26T02:54:23;29.60;;;19.80;;
53644;SDS011;39547;45.554;12.068;2024-02-26T03:00:25;28.90;;;18.67;;
53644;SDS011;39547;45.554;12.068;2024-02-26T03:06:26;32.15;;;20.02;;
53644;SDS011;39547;45.554;12.068;2024-02-26T03:12:29;27.88;;;18.40;;
53644;SDS011;39547;45.554;12.068;2024-02-26T03:18:31;29.88;;;19.55;;
53644;SDS011;39547;45.554;12.068;2024-02-26T03:24:32;29.17;;;19.35;;
53644;SDS011;39547;45.554;12.068;2024-02-26T03:30:34;30.23;;;19.52;;
53644;SDS011;39547;45.554;12.068;2024-02-26T03:36:36;30.15;;;19.10;;
53644;SDS011;39547;45.554;12.068;2024-02-26T03:42:37;28.38;;;18.35;;
53644;SDS011;39547;45.554;12.068;2024-02-26T03:48:40;27.92;;;18.58;;
53644;SDS011;39547;45.554;12.068;2024-02-26T03:54:42;28.58;;;18.23;;
53644;SDS011;39547;45.554;12.068;2024-02-26T04:00:43;29.02;;;19.20;;
53644;SDS011;39547;45.554;12.068;2024-02-26T04:06:45;28.15;;;17.95;;
53644;SDS011;39547;45.554;12.068;2024-02-26T04:12:47;26.67;;;17.48;;
53644;SDS011;39547;45.554;12.068;2024-02-26T04:18:49;26.33;;;17.35;;
53644;SDS011;39547;45.554;12.068;2024-02-26T04:24:50;27.55;;;18.00;;
53644;SDS011;39547;45.554;12.068;2024-02-26T04:30:51;30.52;;;19.60;;
53644;SDS011;39547;45.554;12.068;2024-02-26T04:36:53;29.95;;;19.25;;
53644;SDS011;39547;45.554;12.068;2024-02-26T04:42:54;28.50;;;18.83;;
53644;SDS011;39547;45.554;12.068;2024-02-26T04:48:56;31.15;;;19.75;;
53644;SDS011;39547;45.554;12.068;2024-02-26T04:54:57;30.02;;;19.38;;
53644;SDS011;39547;45.554;12.068;2024-02-26T05:01:00;29.98;;;20.33;;
53644;SDS011;39547;45.554;12.068;2024-02-26T05:07:02;29.73;;;19.23;;
53644;SDS011;39547;45.554;12.068;2024-02-26T05:13:04;30.83;;;20.20;;
53644;SDS011;39547;45.554;12.068;2024-02-26T05:19:06;33.15;;;20.67;;
53644;SDS011;39547;45.554;12.068;2024-02-26T05:25:08;30.80;;;20.92;;
53644;SDS011;39547;45.554;12.068;2024-02-26T05:31:12;30.23;;;19.88;;
53644;SDS011;39547;45.554;12.068;2024-02-26T05:37:14;29.27;;;18.98;;
53644;SDS011;39547;45.554;12.068;2024-02-26T05:43:16;28.98;;;19.70;;
53644;SDS011;39547;45.554;12.068;2024-02-26T05:49:17;27.65;;;18.10;;
53644;SDS011;39547;45.554;12.068;2024-02-26T05:55:20;29.20;;;18.92;;
53644;SDS011;39547;45.554;12.068;2024-02-26T06:01:21;30.98;;;19.80;;
53644;SDS011;39547;45.554;12.068;2024-02-26T06:07:22;30.38;;;20.00;;
53644;SDS011;39547;45.554;12.068;2024-02-26T06:13:24;29.95;;;19.38;;
53644;SDS011;39547;45.554;12.068;2024-02-26T06:19:26;30.15;;;19.67;;
53644;SDS011;39547;45.554;12.068;2024-02-26T06:25:27;30.50;;;19.25;;
53644;SDS011;39547;45.554;12.068;2024-02-26T06:31:29;28.63;;;18.48;;
53644;SDS011;39547;45.554;12.068;2024-02-26T06:37:30;29.02;;;18.77;;
53644;SDS011;39547;45.554;12.068;2024-02-26T06:43:32;27.48;;;17.60;;
53644;SDS011;39547;45.554;12.068;2024-02-26T06:49:34;29.42;;;18.55;;
53644;SDS011;39547;45.554;12.068;2024-02-26T06:55:36;28.70;;;18.02;;
53644;SDS011;39547;45.554;12.068;2024-02-26T07:01:41;28.42;;;17.70;;
53644;SDS011;39547;45.554;12.068;2024-02-26T07:07:42;28.10;;;17.85;;
53644;SDS011;39547;45.554;12.068;2024-02-26T07:13:48;26.30;;;15.65;;
53644;SDS011;39547;45.554;12.068;2024-02-26T07:19:51;27.65;;;16.95;;
53644;SDS011;39547;45.554;12.068;2024-02-26T07:25:52;25.85;;;15.65;;
53644;SDS011;39547;45.554;12.068;2024-02-26T07:31:55;25.83;;;15.63;;
53644;SDS011;39547;45.554;12.068;2024-02-26T07:37:57;27.20;;;16.45;;
53644;SDS011;39547;45.554;12.068;2024-02-26T07:43:59;26.02;;;15.68;;
53644;SDS011;39547;45.554;12.068;2024-02-26T07:50:01;26.33;;;14.73;;
53644;SDS011;39547;45.554;12.068;2024-02-26T07:56:03;24.42;;;14.73;;
53644;SDS011;39547;45.554;12.068;2024-02-26T08:02:04;23.23;;;14.15;;
53644;SDS011;39547;45.554;12.068;2024-02-26T08:08:06;23.58;;;13.20;;
53644;SDS011;39547;45.554;12.068;2024-02-26T08:14:08;20.83;;;12.45;;
53644;SDS011;39547;45.554;12.068;2024-02-26T08:20:10;22.65;;;13.02;;
53644;SDS011;39547;45.554;12.068;2024-02-26T08:26:12;23.35;;;12.93;;
53644;SDS011;39547;45.554;12.068;2024-02-26T08:32:14;23.02;;;12.80;;
53644;SDS011;39547;45.554;12.068;2024-02-26T08:38:15;23.40;;;12.93;;
53644;SDS011;39547;45.554;12.068;2024-02-26T08:44:18;22.52;;;12.88;;
53644;SDS011;39547;45.554;12.068;2024-02-26T08:50:19;23.60;;;12.98;;
53644;SDS011;39547;45.554;12.068;2024-02-26T08:56:21;26.02;;;15.35;;
53644;SDS011;39547;45.554;12.068;2024-02-26T09:02:22;23.63;;;13.70;;
53644;SDS011;39547;45.554;12.068;2024-02-26T09:08:24;23.35;;;13.40;;
53644;SDS011;39547;45.554;12.068;2024-02-26T09:14:25;23.48;;;13.02;;
53644;SDS011;39547;45.554;12.068;2024-02-26T09:20:27;25.67;;;13.98;;
53644;SDS011;39547;45.554;12.068;2024-02-26T09:26:29;23.85;;;12.77;;
53644;SDS011;39547;45.554;12.068;2024-02-26T09:32:31;20.85;;;11.65;;
53644;SDS011;39547;45.554;12.068;2024-02-26T09:38:34;20.20;;;11.18;;
53644;SDS011;39547;45.554;12.068;2024-02-26T09:44:39;22.83;;;11.00;;
53644;SDS011;39547;45.554;12.068;2024-02-26T09:50:43;20.70;;;11.25;;
53644;SDS011;39547;45.554;12.068;2024-02-26T09:56:45;22.75;;;11.20;;
53644;SDS011;39547;45.554;12.068;2024-02-26T10:02:52;21.17;;;10.85;;
53644;SDS011;39547;45.554;12.068;2024-02-26T10:08:57;21.42;;;10.60;;
53644;SDS011;39547;45.554;12.068;2024-02-26T10:14:59;20.08;;;10.95;;
53644;SDS011;39547;45.554;12.068;2024-02-26T10:21:01;20.77;;;10.43;;
53644;SDS011;39547;45.554;12.068;2024-02-26T10:27:03;19.33;;;9.82;;
53644;SDS011;39547;45.554;12.068;2024-02-26T10:33:07;19.38;;;9.40;;
53644;SDS011;39547;45.554;12.068;2024-02-26T10:39:08;22.42;;;10.10;;
53644;SDS011;39547;45.554;12.068;2024-02-26T10:45:12;20.40;;;9.00;;
53644;SDS011;39547;45.554;12.068;2024-02-26T10:51:13;19.83;;;9.48;;
53644;SDS011;39547;45.554;12.068;2024-02-26T10:57:18;19.48;;;9.30;;
53644;SDS011;39547;45.554;12.068;2024-02-26T11:03:20;21.05;;;10.40;;
53644;SDS011;39547;45.554;12.068;2024-02-26T11:09:24;26.58;;;11.55;;
53644;SDS011;39547;45.554;12.068;2024-02-26T11:15:26;20.98;;;10.70;;
53644;SDS011;39547;45.554;12.068;2024-02-26T11:21:30;21.83;;;11.10;;
53644;SDS011;39547;45.554;12.068;2024-02-26T11:27:40;20.85;;;10.63;;
53644;SDS011;39547;45.554;12.068;2024-02-26T11:33:46;21.95;;;9.98;;
53644;SDS011;39547;45.554;12.068;2024-02-26T11:39:48;22.45;;;9.90;;
53644;SDS011;39547;45.554;12.068;2024-02-26T11:45:52;21.23;;;9.93;;
53644;SDS011;39547;45.554;12.068;2024-02-26T11:51:54;20.77;;;9.70;;
53644;SDS011;39547;45.554;12.068;2024-02-26T11:57:56;20.98;;;9.70;;
53644;SDS011;39547;45.554;12.068;2024-02-26T12:03:57;19.88;;;9.63;;
53644;SDS011;39547;45.554;12.068;2024-02-26T12:16:43;18.55;;;8.20;;
53644;SDS011;39547;45.554;12.068;2024-02-26T12:22:46;18.15;;;7.53;;
53644;SDS011;39547;45.554;12.068;2024-02-26T12:34:53;18.15;;;6.85;;
53644;SDS011;39547;45.554;12.068;2024-02-26T12:40:55;17.02;;;6.63;;
53644;SDS011;39547;45.554;12.068;2024-02-26T12:47:02;19.25;;;7.05;;
53644;SDS011;39547;45.554;12.068;2024-02-26T12:53:05;16.13;;;6.40;;
53644;SDS011;39547;45.554;12.068;2024-02-26T12:59:07;17.55;;;6.88;;
53644;SDS011;39547;45.554;12.068;2024-02-26T13:05:11;17.00;;;7.25;;
53644;SDS011;39547;45.554;12.068;2024-02-26T13:11:14;16.83;;;6.47;;
53644;SDS011;39547;45.554;12.068;2024-02-26T13:17:21;18.42;;;7.47;;
53644;SDS011;39547;45.554;12.068;2024-02-26T13:23:25;17.42;;;7.00;;
53644;SDS011;39547;45.554;12.068;2024-02-26T13:29:27;17.98;;;6.93;;
53644;SDS011;39547;45.554;12.068;2024-02-26T13:35:29;16.23;;;6.70;;
53644;SDS011;39547;45.554;12.068;2024-02-26T13:41:32;15.40;;;6.43;;
53644;SDS011;39547;45.554;12.068;2024-02-26T13:47:34;15.88;;;6.03;;
53644;SDS011;39547;45.554;12.068;2024-02-26T13:53:35;16.42;;;6.47;;
53644;SDS011;39547;45.554;12.068;2024-02-26T13:59:37;14.27;;;5.60;;
53644;SDS011;39547;45.554;12.068;2024-02-26T14:05:42;14.10;;;5.38;;
53644;SDS011;39547;45.554;12.068;2024-02-26T14:11:47;15.57;;;5.85;;
53644;SDS011;39547;45.554;12.068;2024-02-26T14:17:49;16.38;;;5.97;;
53644;SDS011;39547;45.554;12.068;2024-02-26T14:23:54;14.68;;;5.00;;
53644;SDS011;39547;45.554;12.068;2024-02-26T14:29:56;16.02;;;6.05;;
53644;SDS011;39547;45.554;12.068;2024-02-26T14:35:57;16.23;;;6.10;;
53644;SDS011;39547;45.554;12.068;2024-02-26T14:41:59;15.35;;;6.07;;
53644;SDS011;39547;45.554;12.068;2024-02-26T14:48:01;17.17;;;6.43;;
53644;SDS011;39547;45.554;12.068;2024-02-26T14:54:03;16.38;;;6.50;;
53644;SDS011;39547;45.554;12.068;2024-02-26T15:00:05;16.77;;;6.63;;
53644;SDS011;39547;45.554;12.068;2024-02-26T15:06:07;17.13;;;7.80;;
53644;SDS011;39547;45.554;12.068;2024-02-26T15:12:10;18.42;;;6.97;;
53644;SDS011;39547;45.554;12.068;2024-02-26T15:18:11;15.70;;;6.60;;
53644;SDS011;39547;45.554;12.068;2024-02-26T15:24:16;18.17;;;7.30;;
53644;SDS011;39547;45.554;12.068;2024-02-26T15:30:18;17.13;;;6.85;;
53644;SDS011;39547;45.554;12.068;2024-02-26T15:36:20;18.00;;;8.18;;
53644;SDS011;39547;45.554;12.068;2024-02-26T15:42:21;17.75;;;8.30;;
53644;SDS011;39547;45.554;12.068;2024-02-26T15:48:23;20.25;;;8.13;;
53644;SDS011;39547;45.554;12.068;2024-02-26T15:54:25;16.95;;;8.07;;
53644;SDS011;39547;45.554;12.068;2024-02-26T16:00:28;16.80;;;7.65;;
53644;SDS011;39547;45.554;12.068;2024-02-26T16:12:41;20.05;;;10.18;;
53644;SDS011;39547;45.554;12.068;2024-02-26T16:18:54;22.55;;;11.73;;
53644;SDS011;39547;45.554;12.068;2024-02-26T16:25:06;21.02;;;11.55;;
53644;SDS011;39547;45.554;12.068;2024-02-26T16:31:07;22.40;;;12.20;;
53644;SDS011;39547;45.554;12.068;2024-02-26T16:37:10;22.10;;;11.85;;
53644;SDS011;39547;45.554;12.068;2024-02-26T16:43:12;22.48;;;12.70;;
53644;SDS011;39547;45.554;12.068;2024-02-26T16:49:14;23.55;;;12.60;;
53644;SDS011;39547;45.554;12.068;2024-02-26T16:55:15;22.90;;;12.27;;
53644;SDS011;39547;45.554;12.068;2024-02-26T17:01:17;25.08;;;13.60;;
53644;SDS011;39547;45.554;12.068;2024-02-26T17:07:18;24.75;;;13.63;;
53644;SDS011;39547;45.554;12.068;2024-02-26T17:13:20;23.77;;;11.95;;
53644;SDS011;39547;45.554;12.068;2024-02-26T17:19:23;22.15;;;12.10;;
53644;SDS011;39547;45.554;12.068;2024-02-26T17:25:25;20.65;;;11.60;;
53644;SDS011;39547;45.554;12.068;2024-02-26T17:31:27;25.42;;;13.50;;
53644;SDS011;39547;45.554;12.068;2024-02-26T17:37:30;23.23;;;13.27;;
53644;SDS011;39547;45.554;12.068;2024-02-26T17:43:32;24.88;;;14.48;;
53644;SDS011;39547;45.554;12.068;2024-02-26T17:49:34;26.40;;;14.25;;
53644;SDS011;39547;45.554;12.068;2024-02-26T17:55:37;23.92;;;14.30;;
53644;SDS011;39547;45.554;12.068;2024-02-26T18:01:39;25.05;;;13.68;;
53644;SDS011;39547;45.554;12.068;2024-02-26T18:07:41;25.58;;;14.55;;
53644;SDS011;39547;45.554;12.068;2024-02-26T18:13:43;26.77;;;14.68;;
53644;SDS011;39547;45.554;12.068;2024-02-26T18:19:46;22.52;;;12.50;;
53644;SDS011;39547;45.554;12.068;2024-02-26T18:25:48;29.23;;;16.45;;
53644;SDS011;39547;45.554;12.068;2024-02-26T18:31:51;23.45;;;13.45;;
53644;SDS011;39547;45.554;12.068;2024-02-26T18:37:52;23.50;;;12.82;;
53644;SDS011;39547;45.554;12.068;2024-02-26T18:43:54;23.02;;;13.30;;
53644;SDS011;39547;45.554;12.068;2024-02-26T18:49:56;29.08;;;15.32;;
53644;SDS011;39547;45.554;12.068;2024-02-26T18:55:58;25.13;;;14.60;;
53644;SDS011;39547;45.554;12.068;2024-02-26T19:02:00;24.15;;;13.18;;
53644;SDS011;39547;45.554;12.068;2024-02-26T19:08:03;22.75;;;12.25;;
53644;SDS011;39547;45.554;12.068;2024-02-26T19:14:05;21.35;;;11.25;;
53644;SDS011;39547;45.554;12.068;2024-02-26T19:20:10;20.67;;;10.43;;
53644;SDS011;39547;45.554;12.068;2024-02-26T19:26:12;20.02;;;10.57;;
53644;SDS011;39547;45.554;12.068;2024-02-26T19:32:13;20.05;;;9.98;;
53644;SDS011;39547;45.554;12.068;2024-02-26T19:38:15;18.48;;;8.82;;
53644;SDS011;39547;45.554;12.068;2024-02-26T19:44:20;19.05;;;10.15;;
53644;SDS011;39547;45.554;12.068;2024-02-26T19:50:21;17.35;;;8.55;;
53644;SDS011;39547;45.554;12.068;2024-02-26T19:56:23;17.95;;;9.13;;
53644;SDS011;39547;45.554;12.068;2024-02-26T20:02:26;17.38;;;8.80;;
53644;SDS011;39547;45.554;12.068;2024-02-26T20:08:28;16.52;;;7.80;;
53644;SDS011;39547;45.554;12.068;2024-02-26T20:14:30;16.02;;;7.75;;
53644;SDS011;39547;45.554;12.068;2024-02-26T20:20:34;15.70;;;6.93;;
53644;SDS011;39547;45.554;12.068;2024-02-26T20:26:36;14.98;;;6.38;;
53644;SDS011;39547;45.554;12.068;2024-02-26T20:32:39;14.02;;;6.38;;
53644;SDS011;39547;45.554;12.068;2024-02-26T20:38:40;13.27;;;5.50;;
53644;SDS011;39547;45.554;12.068;2024-02-26T20:44:42;13.23;;;5.63;;
53644;SDS011;39547;45.554;12.068;2024-02-26T20:50:44;13.90;;;5.60;;
53644;SDS011;39547;45.554;12.068;2024-02-26T20:56:46;13.40;;;5.43;;
53644;SDS011;39547;45.554;12.068;2024-02-26T21:02:49;13.48;;;4.90;;
53644;SDS011;39547;45.554;12.068;2024-02-26T21:08:52;13.50;;;5.10;;
53644;SDS011;39547;45.554;12.068;2024-02-26T21:14:54;13.68;;;4.97;;
53644;SDS011;39547;45.554;12.068;2024-02-26T21:20:57;13.00;;;4.88;;
53644;SDS011;39547;45.554;12.068;2024-02-26T21:26:58;12.82;;;5.03;;
53644;SDS011;39547;45.554;12.068;2024-02-26T21:33:00;12.82;;;4.47;;
53644;SDS011;39547;45.554;12.068;2024-02-26T21:39:02;12.20;;;4.57;;
53644;SDS011;39547;45.554;12.068;2024-02-26T21:45:03;11.88;;;4.25;;
53644;SDS011;39547;45.554;12.068;2024-02-26T21:51:05;11.85;;;4.28;;
53644;SDS011;39547;45.554;12.068;2024-02-26T21:57:07;12.68;;;4.50;;
53644;SDS011;39547;45.554;12.068;2024-02-26T22:03:08;11.50;;;4.10;;
53644;SDS011;39547;45.554;12.068;2024-02-26T22:09:10;12.48;;;4.47;;
53644;SDS011;39547;45.554;12.068;2024-02-26T22:15:12;12.65;;;4.07;;
53644;SDS011;39547;45.554;12.068;2024-02-26T22:21:14;11.70;;;3.90;;
53644;SDS011;39547;45.554;12.068;2024-02-26T22:27:15;11.85;;;3.70;;
53644;SDS011;39547;45.554;12.068;2024-02-26T22:33:17;11.63;;;3.50;;
53644;SDS011;39547;45.554;12.068;2024-02-26T22:39:19;10.60;;;3.20;;
53644;SDS011;39547;45.554;12.068;2024-02-26T22:45:22;19.70;;;6.88;;
53644;SDS011;39547;45.554;12.068;2024-02-26T22:51:25;11.15;;;3.40;;
53644;SDS011;39547;45.554;12.068;2024-02-26T22:57:27;11.38;;;3.47;;
53644;SDS011;39547;45.554;12.068;2024-02-26T23:03:28;11.68;;;3.50;;
53644;SDS011;39547;45.554;12.068;2024-02-26T23:09:30;10.40;;;3.17;;
53644;SDS011;39547;45.554;12.068;2024-02-26T23:15:31;10.00;;;3.03;;
53644;SDS011;39547;45.554;12.068;2024-02-26T23:21:33;10.80;;;3.42;;
53644;SDS011;39547;45.554;12.068;2024-02-26T23:27:34;10.45;;;3.10;;
53644;SDS011;39547;45.554;12.068;2024-02-26T23:33:36;11.88;;;3.30;;
53644;SDS011;39547;45.554;12.068;2024-02-26T23:39:37;11.25;;;3.55;;
53644;SDS011;39547;45.554;12.068;2024-02-26T23:45:40;12.02;;;4.30;;
53644;SDS011;39547;45.554;12.068;2024-02-26T23:51:41;11.98;;;3.83;;
53644;SDS011;39547;45.554;12.068;2024-02-26T23:57:43;12.10;;;4.00;;
